Time;durP1;ratioP1;P1;durP2;ratioP2;P2;SDS_P1;SDS_P2;PMS_P1;PMS_P2;Temp;Humidity;BMP_temperature;BMP_pressure;BME280_temperature;BME280_humidity;BME280_pressure;Samples;Min_cycle;Max_cycle;Signal;HPM_P1;HPM_P2
2022/04/03 00:01:15;;;;;;;19.98;14.50;;;;;;;0.62;86.41;99661.25;5020797;28;20566;-73
2022/04/03 00:03:41;;;;;;;21.37;14.50;;;;;;;0.61;86.38;99668.19;5020789;28;20213;-73
2022/04/03 00:06:07;;;;;;;19.17;13.77;;;;;;;0.62;86.38;99669.91;5024952;28;20216;-73
2022/04/03 00:08:32;;;;;;;17.73;11.80;;;;;;;0.63;86.35;99663.81;5024108;28;20473;-73
2022/04/03 00:10:58;;;;;;;20.77;12.60;;;;;;;0.62;86.19;99669.03;5024844;28;20524;-73
2022/04/03 00:13:23;;;;;;;22.83;14.27;;;;;;;0.61;86.37;99675.09;5026219;28;20472;-73
2022/04/03 00:15:49;;;;;;;26.27;13.90;;;;;;;0.60;86.18;99660.47;5025297;28;20283;-73
2022/04/03 00:18:15;;;;;;;18.17;13.90;;;;;;;0.60;86.24;99657.88;5026808;28;20758;-74
2022/04/03 00:20:41;;;;;;;18.57;12.27;;;;;;;0.60;86.02;99656.16;5026401;28;20202;-73
2022/04/03 00:23:07;;;;;;;25.70;14.90;;;;;;;0.61;86.39;99660.41;5026500;28;20436;-73
2022/04/03 00:25:33;;;;;;;20.38;14.38;;;;;;;0.64;86.13;99665.50;5027086;28;20233;-73
2022/04/03 00:27:59;;;;;;;17.13;12.40;;;;;;;0.64;85.97;99665.50;5025982;28;20679;-73
2022/04/03 00:30:24;;;;;;;18.60;13.43;;;;;;;0.63;86.02;99658.66;5025470;28;20283;-73
2022/04/03 00:32:49;;;;;;;26.00;18.10;;;;;;;0.67;86.33;99664.59;5026319;28;20471;-73
2022/04/03 00:35:16;;;;;;;22.70;14.90;;;;;;;0.66;86.14;99663.75;5025915;28;21113;-73
2022/04/03 00:37:42;;;;;;;19.77;13.68;;;;;;;0.67;86.22;99664.59;5025185;28;20635;-73
2022/04/03 00:40:08;;;;;;;18.73;13.77;;;;;;;0.64;86.06;99662.94;5026683;28;20269;-73
2022/04/03 00:42:35;;;;;;;17.20;11.95;;;;;;;0.63;86.37;99668.16;5026217;28;20444;-73
2022/04/03 00:45:01;;;;;;;15.80;13.00;;;;;;;0.63;86.13;99674.16;5026058;28;20313;-73
2022/04/03 00:47:27;;;;;;;20.50;12.40;;;;;;;0.61;86.04;99670.75;5024693;28;20231;-73
2022/04/03 00:49:54;;;;;;;19.60;13.20;;;;;;;0.60;85.99;99666.47;5025632;28;20679;-73
2022/04/03 00:52:20;;;;;;;21.63;14.73;;;;;;;0.62;85.98;99666.44;5025278;28;20232;-72
2022/04/03 00:54:47;;;;;;;14.70;11.57;;;;;;;0.61;85.96;99670.75;5026438;28;20949;-73
2022/04/03 00:57:13;;;;;;;19.08;13.48;;;;;;;0.60;85.92;99670.81;5026006;28;20218;-73
2022/04/03 00:59:41;;;;;;;21.95;12.98;;;;;;;0.60;85.88;99669.06;5028288;28;20300;-73
2022/04/03 01:02:07;;;;;;;22.40;15.80;;;;;;;0.62;85.71;99675.06;5025022;28;20791;-74
2022/04/03 01:04:33;;;;;;;20.23;14.27;;;;;;;0.62;85.68;99680.25;5025656;28;20276;-73
2022/04/03 01:06:59;;;;;;;20.10;15.17;;;;;;;0.62;85.68;99672.47;5025684;28;20817;-74
2022/04/03 01:09:24;;;;;;;20.17;12.43;;;;;;;0.61;85.84;99675.94;5025717;28;20224;-73
2022/04/03 01:11:49;;;;;;;18.20;12.23;;;;;;;0.60;85.53;99673.41;5025318;28;20230;-74
2022/04/03 01:14:39;;;;;;;26.13;14.90;;;;;;;0.59;85.54;99672.53;5025058;28;20309;-74
2022/04/03 01:17:06;;;;;;;17.88;14.32;;;;;;;0.59;85.52;99672.53;5020712;28;20236;-74
2022/04/03 01:19:32;;;;;;;17.65;12.63;;;;;;;0.59;85.44;99675.09;5020484;28;20852;-74
2022/04/03 01:21:58;;;;;;;20.30;14.40;;;;;;;0.59;85.41;99674.25;5022571;28;20926;-74
2022/04/03 01:24:25;;;;;;;18.40;13.45;;;;;;;0.58;85.42;99676.00;5022917;28;20477;-74
2022/04/03 01:26:51;;;;;;;18.55;12.15;;;;;;;0.58;85.24;99676.00;5021453;28;20202;-73
2022/04/03 01:29:17;;;;;;;22.30;14.68;;;;;;;0.60;85.65;99669.06;5021816;28;20221;-74
2022/04/03 01:31:46;;;;;;;22.52;13.93;;;;;;;0.63;85.31;99668.16;5023334;28;20469;-74
2022/04/03 01:34:16;;;;;;;24.02;13.50;;;;;;;0.61;85.33;99669.91;5021200;28;20709;-74
2022/04/03 01:36:42;;;;;;;18.85;13.60;;;;;;;0.61;85.34;99663.00;5021939;28;20280;-74
2022/04/03 01:39:10;;;;;;;14.32;12.60;;;;;;;0.60;85.19;99669.06;5021198;28;20892;-73
2022/04/03 01:41:39;;;;;;;19.55;12.93;;;;;;;0.60;85.29;99663.91;5022051;28;20212;-74
2022/04/03 01:44:06;;;;;;;22.63;12.35;;;;;;;0.63;85.02;99668.16;5021673;28;20386;-73
2022/04/03 01:46:31;;;;;;;18.38;13.05;;;;;;;0.64;85.07;99662.94;5021473;28;20198;-74
2022/04/03 01:48:57;;;;;;;19.80;12.30;;;;;;;0.66;84.63;99668.94;5021195;28;20282;-74
2022/04/03 01:51:22;;;;;;;17.30;11.87;;;;;;;0.68;84.86;99675.81;5020035;28;20316;-73
2022/04/03 01:53:48;;;;;;;18.53;12.20;;;;;;;0.69;84.85;99674.91;5021385;28;20240;-74
2022/04/03 01:56:13;;;;;;;19.20;11.53;;;;;;;0.69;84.41;99677.50;5020625;28;20241;-73
2022/04/03 01:58:38;;;;;;;15.77;10.90;;;;;;;0.68;84.50;99678.41;5021933;28;20582;-74
2022/04/03 02:01:06;;;;;;;19.00;11.80;;;;;;;0.64;84.79;99670.69;5019512;28;20198;-73
2022/04/03 02:03:32;;;;;;;18.85;12.93;;;;;;;0.63;84.54;99670.75;5019511;28;20221;-74
2022/04/03 02:05:57;;;;;;;13.73;10.60;;;;;;;0.59;84.46;99675.09;5020731;28;20243;-73
2022/04/03 02:08:25;;;;;;;15.40;10.73;;;;;;;0.57;84.44;99673.47;5018588;28;20229;-73
2022/04/03 02:10:51;;;;;;;18.95;12.88;;;;;;;0.56;84.48;99682.94;5019695;28;20234;-74
2022/04/03 02:13:16;;;;;;;14.77;11.27;;;;;;;0.55;84.40;99677.81;5020323;28;20224;-74
2022/04/03 02:15:41;;;;;;;15.70;11.47;;;;;;;0.55;84.45;99685.56;5020289;28;20479;-73
2022/04/03 02:18:09;;;;;;;17.20;13.10;;;;;;;0.55;84.34;99682.97;5020498;28;20559;-74
2022/04/03 02:20:35;;;;;;;15.30;10.65;;;;;;;0.55;84.35;99680.41;5019589;28;20225;-74
2022/04/03 02:23:00;;;;;;;14.30;9.73;;;;;;;0.53;84.04;99684.75;5020654;28;20218;-74
2022/04/03 02:25:26;;;;;;;20.40;13.47;;;;;;;0.52;84.23;99689.06;5021758;28;20703;-74
2022/04/03 02:27:52;;;;;;;17.03;11.70;;;;;;;0.54;84.41;99689.88;5020092;28;20205;-73
2022/04/03 02:30:18;;;;;;;22.88;12.73;;;;;;;0.54;84.36;99689.88;5020040;28;20713;-74
2022/04/03 02:32:45;;;;;;;18.17;13.05;;;;;;;0.56;84.39;99687.25;5020360;28;20921;-74
2022/04/03 02:35:12;;;;;;;18.00;11.57;;;;;;;0.55;84.21;99683.81;5020945;28;20210;-74
2022/04/03 02:37:39;;;;;;;16.90;12.25;;;;;;;0.55;84.46;99681.25;5021071;28;20675;-74
2022/04/03 02:40:08;;;;;;;15.10;11.88;;;;;;;0.54;84.08;99689.88;5019754;28;20675;-74
2022/04/03 02:42:34;;;;;;;19.55;12.45;;;;;;;0.53;84.21;99690.75;5020482;28;20202;-74
2022/04/03 02:44:59;;;;;;;13.27;9.88;;;;;;;0.53;84.23;99695.91;5018945;28;20226;-73
2022/04/03 02:47:25;;;;;;;15.40;10.70;;;;;;;0.51;84.25;99692.50;5019474;28;20249;-73
2022/04/03 02:49:51;;;;;;;13.90;12.30;;;;;;;0.52;84.35;99693.38;5018966;28;20551;-74
2022/04/03 02:52:18;;;;;;;17.67;12.13;;;;;;;0.52;84.25;99696.81;5018494;28;20510;-74
2022/04/03 02:54:45;;;;;;;14.25;11.40;;;;;;;0.49;84.26;99693.44;5017498;28;20230;-74
2022/04/03 02:57:15;;;;;;;18.48;12.10;;;;;;;0.46;84.00;99691.78;5020232;28;20597;-74
2022/04/03 02:59:41;;;;;;;14.43;10.45;;;;;;;0.43;84.18;99686.66;5022296;28;20281;-74
2022/04/03 03:02:07;;;;;;;17.40;12.00;;;;;;;0.41;84.10;99694.47;5024063;28;20197;-74
2022/04/03 03:04:34;;;;;;;20.37;13.43;;;;;;;0.40;84.09;99694.47;5022110;28;20607;-73
2022/04/03 03:06:59;;;;;;;19.52;12.88;;;;;;;0.39;84.13;99706.56;5022170;28;20213;-74
2022/04/03 03:09:25;;;;;;;16.77;11.60;;;;;;;0.40;84.23;99695.31;5023582;28;20599;-74
2022/04/03 03:11:50;;;;;;;16.10;11.77;;;;;;;0.39;83.73;99697.97;5021256;28;20248;-73
2022/04/03 03:14:16;;;;;;;19.10;12.60;;;;;;;0.38;84.12;99701.44;5022677;28;20937;-72
2022/04/03 03:16:42;;;;;;;19.27;12.50;;;;;;;0.39;84.06;99710.88;5024293;28;20270;-74
2022/04/03 03:19:08;;;;;;;19.15;13.20;;;;;;;0.39;83.94;99695.38;5023480;28;20255;-73
2022/04/03 03:21:37;;;;;;;15.85;11.65;;;;;;;0.40;84.09;99702.22;5023858;28;20212;-73
2022/04/03 03:24:03;;;;;;;21.15;11.80;;;;;;;0.42;84.10;99700.47;5024865;28;20312;-74
2022/04/03 03:26:28;;;;;;;13.35;10.55;;;;;;;0.42;84.04;99697.88;5024265;28;20220;-74
2022/04/03 03:28:54;;;;;;;21.90;15.10;;;;;;;0.40;84.06;99689.31;5023251;28;20675;-74
2022/04/03 03:31:19;;;;;;;17.53;11.13;;;;;;;0.35;84.13;99688.56;5021798;28;20210;-74
2022/04/03 03:33:46;;;;;;;17.90;12.10;;;;;;;0.31;83.92;99692.09;5021639;28;20214;-74
2022/04/03 03:36:11;;;;;;;17.70;11.60;;;;;;;0.31;84.39;99697.25;5021902;28;20213;-74
2022/04/03 03:38:37;;;;;;;15.33;12.10;;;;;;;0.30;84.37;99696.41;5020047;28;20214;-74
2022/04/03 03:41:03;;;;;;;17.57;12.93;;;;;;;0.31;84.20;99697.25;5021745;28;20304;-74
2022/04/03 03:43:29;;;;;;;24.70;13.20;;;;;;;0.31;83.90;99699.84;5021150;28;20218;-74
2022/04/03 03:45:54;;;;;;;24.47;14.10;;;;;;;0.32;84.36;99702.38;5022010;28;20218;-74
2022/04/03 03:48:20;;;;;;;21.83;15.20;;;;;;;0.31;84.50;99692.09;5020965;28;20319;-74
2022/04/03 03:50:46;;;;;;;25.37;14.20;;;;;;;0.31;84.61;99698.09;5021724;28;20234;-74
2022/04/03 03:53:11;;;;;;;23.37;15.03;;;;;;;0.33;84.34;99700.69;5021603;28;20217;-74
2022/04/03 03:55:37;;;;;;;28.00;15.37;;;;;;;0.32;84.45;99698.94;5021135;28;20730;-74
2022/04/03 03:58:02;;;;;;;23.87;15.27;;;;;;;0.32;84.43;99698.94;5023123;28;20841;-74
2022/04/03 04:00:28;;;;;;;26.73;14.50;;;;;;;0.30;84.52;99695.53;5020925;28;20202;-74
2022/04/03 04:02:53;;;;;;;29.27;21.17;;;;;;;0.30;84.86;99700.72;5020367;28;20464;-74
2022/04/03 04:05:19;;;;;;;25.70;15.87;;;;;;;0.28;85.19;99700.75;5021031;28;20836;-74
2022/04/03 04:07:46;;;;;;;25.67;16.03;;;;;;;0.27;85.13;99700.78;5023534;28;20221;-74
2022/04/03 04:10:13;;;;;;;24.10;15.20;;;;;;;0.26;85.08;99704.25;5019985;28;20522;-74
2022/04/03 04:12:45;;;;;;;25.35;17.10;;;;;;;0.24;85.27;99704.28;5020658;28;20311;-74
2022/04/03 04:15:12;;;;;;;29.75;18.05;;;;;;;0.27;85.07;99708.53;5020718;28;20237;-74
2022/04/03 04:17:42;;;;;;;35.20;17.50;;;;;;;0.28;85.03;99712.84;5020466;28;20209;-74
2022/04/03 04:20:12;;;;;;;24.17;16.27;;;;;;;0.27;85.10;99713.69;5022329;28;20362;-74
2022/04/03 04:22:39;;;;;;;27.13;17.23;;;;;;;0.27;85.16;99711.09;5021563;28;20683;-74
2022/04/03 04:25:05;;;;;;;31.63;17.95;;;;;;;0.29;85.09;99714.53;5021334;28;20312;-74
2022/04/03 04:27:31;;;;;;;28.83;15.65;;;;;;;0.33;84.96;99711.00;5017881;28;20246;-74
2022/04/03 04:29:56;;;;;;;24.93;15.60;;;;;;;0.35;85.03;99724.72;5020341;28;20210;-74
2022/04/03 04:32:24;;;;;;;31.03;20.77;;;;;;;0.39;85.14;99726.38;5034774;28;20610;-74
2022/04/03 04:34:50;;;;;;;21.92;16.55;;;;;;;0.35;85.15;99715.25;5020204;28;20246;-74
2022/04/03 04:37:16;;;;;;;27.53;16.10;;;;;;;0.31;85.29;99720.50;5022009;28;20212;-74
2022/04/03 04:39:42;;;;;;;25.95;18.05;;;;;;;0.24;85.44;99721.50;5019521;28;20203;-74
2022/04/03 04:42:08;;;;;;;23.03;15.63;;;;;;;0.20;85.74;99726.75;5019699;28;20398;-74
2022/04/03 04:44:33;;;;;;;27.08;16.60;;;;;;;0.17;85.58;99725.97;5020960;28;20226;-74
2022/04/03 04:46:58;;;;;;;31.13;20.17;;;;;;;0.14;85.63;99729.44;5021649;28;20645;-74
2022/04/03 04:49:24;;;;;;;26.53;18.37;;;;;;;0.13;85.82;99727.72;5020733;28;20239;-74
2022/04/03 04:51:49;;;;;;;26.77;17.37;;;;;;;0.11;85.69;99731.22;5020243;28;20980;-74
2022/04/03 04:54:15;;;;;;;26.00;16.07;;;;;;;0.11;85.89;99737.25;5025301;28;20668;-74
2022/04/03 04:56:41;;;;;;;28.20;16.33;;;;;;;0.13;85.92;99742.38;5025182;28;20214;-74
2022/04/03 04:59:06;;;;;;;20.92;14.70;;;;;;;0.11;85.98;99729.50;5024203;28;20268;-74
2022/04/03 05:01:32;;;;;;;31.02;19.33;;;;;;;0.13;85.66;99737.22;5023836;28;20891;-74
2022/04/03 05:03:57;;;;;;;25.70;17.10;;;;;;;0.13;86.00;99739.78;5023153;28;20734;-74
2022/04/03 05:06:26;;;;;;;29.70;17.07;;;;;;;0.11;85.77;99742.44;5023480;28;20214;-74
2022/04/03 05:08:52;;;;;;;21.42;15.57;;;;;;;0.11;85.76;99737.25;5022872;28;20255;-74
2022/04/03 05:11:18;;;;;;;28.23;18.50;;;;;;;0.12;85.82;99746.69;5023314;28;20655;-74
2022/04/03 05:13:44;;;;;;;31.90;18.10;;;;;;;0.11;86.10;99746.72;5022687;28;20316;-74
2022/04/03 05:16:10;;;;;;;29.10;17.40;;;;;;;0.11;85.99;99747.59;5024514;28;20511;-74
2022/04/03 05:18:35;;;;;;;30.48;15.98;;;;;;;0.12;86.13;99754.44;5023912;28;20213;-74
2022/04/03 05:21:02;;;;;;;26.50;18.60;;;;;;;0.14;86.09;99754.44;5023690;28;20503;-74
2022/04/03 05:23:28;;;;;;;25.60;16.77;;;;;;;0.12;85.92;99759.63;5024625;28;20593;-74
2022/04/03 05:25:53;;;;;;;28.20;16.23;;;;;;;0.09;85.85;99754.50;5022448;28;20850;-74
2022/04/03 05:28:21;;;;;;;22.93;15.90;;;;;;;0.08;86.02;99760.56;5022268;28;20218;-75
2022/04/03 05:30:47;;;;;;;28.67;16.48;;;;;;;0.10;85.90;99763.94;5022482;28;20418;-75
2022/04/03 05:33:14;;;;;;;31.35;22.15;;;;;;;0.14;86.28;99757.00;5020462;28;20489;-75
2022/04/03 05:35:40;;;;;;;28.73;17.58;;;;;;;0.14;86.47;99765.59;5022488;28;20234;-74
2022/04/03 05:38:05;;;;;;;30.13;16.40;;;;;;;0.15;86.47;99763.88;5037333;28;20338;-75
2022/04/03 05:40:31;;;;;;;21.33;13.27;;;;;;;0.15;86.48;99764.72;5020562;28;20452;-74
2022/04/03 05:42:56;;;;;;;19.87;14.63;;;;;;;0.15;86.40;99764.72;5021115;28;20206;-74
2022/04/03 05:45:22;;;;;;;30.50;17.50;;;;;;;0.16;86.21;99769.03;5022308;28;20668;-75
2022/04/03 05:47:48;;;;;;;31.27;19.37;;;;;;;0.17;86.16;99773.28;5022384;28;20285;-75
2022/04/03 05:50:14;;;;;;;47.10;24.03;;;;;;;0.19;86.38;99763.78;5021765;28;20595;-75
2022/04/03 05:52:47;;;;;;;30.42;18.92;;;;;;;0.19;86.12;99776.72;5022325;28;20250;-75
2022/04/03 05:55:15;;;;;;;26.77;19.55;;;;;;;0.21;86.08;99764.59;5022635;28;20797;-75
2022/04/03 05:57:41;;;;;;;29.35;16.60;;;;;;;0.26;85.78;99774.00;5022824;28;20210;-74
2022/04/03 06:00:12;;;;;;;27.33;17.30;;;;;;;0.28;85.98;99782.59;5021530;28;20201;-75
2022/04/03 06:02:56;;;;;;;28.13;17.30;;;;;;;0.31;86.02;99774.78;5020864;28;20206;-75
2022/04/03 06:05:30;;;;;;;25.70;15.27;;;;;;;0.35;85.75;99773.81;5021630;28;20391;-75
2022/04/03 06:07:56;;;;;;;26.80;16.55;;;;;;;0.38;85.63;99782.38;5020632;28;20240;-75
2022/04/03 06:10:23;;;;;;;22.90;14.77;;;;;;;0.38;85.57;99789.28;5021404;28;20306;-74
2022/04/03 06:13:04;;;;;;;26.65;17.35;;;;;;;0.38;85.60;99786.69;5021498;28;20493;-75
2022/04/03 06:15:38;;;;;;;24.65;17.33;;;;;;;0.37;85.72;99791.00;5019079;28;20225;-75
2022/04/03 06:18:06;;;;;;;22.50;16.83;;;;;;;0.37;85.51;99792.72;5021213;28;20198;-75
2022/04/03 06:20:32;;;;;;;29.63;19.55;;;;;;;0.38;85.55;99794.44;5017372;28;20396;-75
2022/04/03 06:22:58;;;;;;;24.63;16.60;;;;;;;0.40;85.55;99798.69;5018762;28;20226;-75
2022/04/03 06:25:23;;;;;;;30.03;16.37;;;;;;;0.42;85.65;99804.69;5020202;28;20472;-75
2022/04/03 06:27:51;;;;;;;27.07;17.80;;;;;;;0.47;85.55;99799.44;5020234;28;20235;-75
2022/04/03 06:30:17;;;;;;;29.65;16.00;;;;;;;0.53;85.12;99807.06;5020645;28;20205;-75
2022/04/03 06:32:42;;;;;;;27.40;17.30;;;;;;;0.55;85.11;99800.13;5022403;28;20225;-75
2022/04/03 06:35:08;;;;;;;19.20;14.63;;;;;;;0.57;85.18;99807.88;5021341;28;20225;-75
2022/04/03 06:37:34;;;;;;;22.60;15.70;;;;;;;0.56;85.20;99809.56;5020766;28;20214;-75
2022/04/03 06:40:00;;;;;;;23.43;15.53;;;;;;;0.58;85.01;99812.16;5019807;28;20457;-75
2022/04/03 06:42:25;;;;;;;27.63;17.20;;;;;;;0.58;85.25;99813.00;5022797;28;20352;-75
2022/04/03 06:44:52;;;;;;;23.77;16.97;;;;;;;0.62;85.21;99811.19;5021720;28;20711;-75
2022/04/03 06:47:17;;;;;;;27.73;16.85;;;;;;;0.69;84.82;99815.38;5021993;28;20251;-75
2022/04/03 06:49:43;;;;;;;26.00;16.33;;;;;;;0.75;84.86;99812.66;5021208;28;20329;-76
2022/04/03 06:52:09;;;;;;;25.33;16.80;;;;;;;0.79;84.73;99809.13;5022172;28;20639;-75
2022/04/03 06:54:35;;;;;;;30.33;17.93;;;;;;;0.81;84.67;99817.72;5021529;28;20230;-75
2022/04/03 06:57:00;;;;;;;28.25;15.45;;;;;;;0.83;84.52;99822.84;5021009;28;20410;-75
2022/04/03 06:59:27;;;;;;;25.07;14.63;;;;;;;0.87;84.54;99817.59;5020893;28;20684;-75
2022/04/03 07:01:53;;;;;;;22.95;16.67;;;;;;;0.92;84.26;99820.09;5021791;28;20523;-75
2022/04/03 07:04:18;;;;;;;24.60;16.43;;;;;;;0.97;84.40;99822.56;5021020;28;20316;-74
2022/04/03 07:06:44;;;;;;;22.13;13.90;;;;;;;1.04;83.90;99824.13;5020502;28;20276;-74
2022/04/03 07:09:11;;;;;;;24.73;16.03;;;;;;;1.08;83.87;99826.63;5020023;28;21117;-74
2022/04/03 07:11:36;;;;;;;27.55;18.85;;;;;;;1.16;83.62;99830.75;5018787;28;20249;-74
2022/04/03 07:14:02;;;;;;;30.90;18.00;;;;;;;1.25;83.48;99828.00;5018630;28;20361;-74
2022/04/03 07:16:27;;;;;;;23.20;14.57;;;;;;;1.29;83.07;99833.03;5020249;28;20206;-74
2022/04/03 07:18:52;;;;;;;25.30;17.53;;;;;;;1.39;82.94;99833.72;5019050;28;20220;-74
2022/04/03 07:21:18;;;;;;;26.00;16.47;;;;;;;1.50;82.78;99842.06;5018956;28;20697;-74
2022/04/03 07:23:43;;;;;;;28.20;21.00;;;;;;;1.63;82.89;99834.03;5018139;28;20209;-75
2022/04/03 07:26:09;;;;;;;32.27;18.60;;;;;;;1.75;82.42;99833.72;5019382;28;20241;-74
2022/04/03 07:28:34;;;;;;;28.17;17.00;;;;;;;1.86;81.95;99842.09;5019646;28;20222;-74
2022/04/03 07:31:00;;;;;;;24.00;17.27;;;;;;;1.93;81.53;99837.63;5020368;28;20225;-74
2022/04/03 07:33:25;;;;;;;28.50;17.23;;;;;;;2.01;81.18;99846.06;5018294;28;20213;-75
2022/04/03 07:35:51;;;;;;;25.57;17.77;;;;;;;2.14;81.40;99842.28;5018772;28;20238;-77
2022/04/03 07:38:18;;;;;;;24.92;17.38;;;;;;;2.30;80.72;99842.72;5018489;28;20393;-74
2022/04/03 07:40:45;;;;;;;29.60;21.80;;;;;;;2.50;80.96;99838.75;5016972;28;20481;-75
2022/04/03 07:43:12;;;;;;;24.65;17.85;;;;;;;2.62;80.43;99843.63;4997050;28;20292;-75
2022/04/03 07:45:37;;;;;;;29.02;18.77;;;;;;;2.77;80.04;99847.53;5019182;28;20257;-74
2022/04/03 07:48:03;;;;;;;22.17;16.60;;;;;;;2.87;79.41;99852.41;5019942;28;20297;-75
2022/04/03 07:50:29;;;;;;;24.00;16.83;;;;;;;2.99;79.26;99850.34;5019515;28;20249;-73
2022/04/03 07:52:54;;;;;;;26.77;16.07;;;;;;;3.13;78.66;99850.78;5017813;28;20580;-76
2022/04/03 07:55:19;;;;;;;20.70;14.90;;;;;;;3.30;77.98;99855.50;5014953;28;20221;-74
2022/04/03 07:57:45;;;;;;;21.60;15.13;;;;;;;3.51;77.56;99849.66;5012290;28;20509;-75
2022/04/03 08:00:12;;;;;;;21.50;13.90;;;;;;;3.67;76.35;99847.44;5016317;28;20206;-75
2022/04/03 08:02:39;;;;;;;26.15;18.08;;;;;;;3.87;76.24;99848.56;5017055;28;20476;-75
2022/04/03 08:05:06;;;;;;;22.67;15.95;;;;;;;3.91;75.49;99852.75;5017446;28;20230;-75
2022/04/03 08:07:40;;;;;;;20.05;13.18;;;;;;;3.91;74.76;99850.97;5016302;28;20260;-75
2022/04/03 08:10:08;;;;;;;19.42;12.23;;;;;;;3.92;74.07;99854.47;5011728;28;20703;-74
2022/04/03 08:12:38;;;;;;;18.83;14.93;;;;;;;4.06;73.70;99849.66;5013323;28;20230;-74
2022/04/03 08:15:05;;;;;;;21.67;15.27;;;;;;;4.41;73.31;99858.84;5018627;28;20728;-74
2022/04/03 08:17:31;;;;;;;18.48;13.32;;;;;;;4.85;71.36;99859.03;5017405;28;20214;-74
2022/04/03 08:19:57;;;;;;;20.65;13.25;;;;;;;5.47;69.76;99854.16;5016120;28;20209;-74
2022/04/03 08:22:23;;;;;;;22.10;12.43;;;;;;;5.83;66.47;99864.88;5014056;28;20202;-74
2022/04/03 08:24:49;;;;;;;15.03;10.37;;;;;;;5.94;65.95;99857.53;5008717;28;20222;-74
2022/04/03 08:27:15;;;;;;;13.20;9.68;;;;;;;6.26;64.98;99859.69;5017380;28;20288;-74
2022/04/03 08:29:41;;;;;;;13.05;9.82;;;;;;;6.54;63.76;99862.84;5020211;28;20693;-74
2022/04/03 08:32:07;;;;;;;17.73;13.33;;;;;;;6.55;64.16;99855.84;5019461;28;20205;-75
2022/04/03 08:34:33;;;;;;;14.47;10.77;;;;;;;6.53;63.01;99858.50;5020374;28;20481;-75
2022/04/03 08:36:58;;;;;;;16.47;12.33;;;;;;;6.46;63.36;99856.25;5019503;28;21039;-74
2022/04/03 08:39:25;;;;;;;9.30;5.40;;;;;;;6.12;62.32;99860.28;5022415;28;20464;-75
2022/04/03 08:41:52;;;;;;;15.00;11.32;;;;;;;5.53;64.38;99865.16;5023190;28;20562;-75
2022/04/03 08:44:18;;;;;;;12.68;9.48;;;;;;;5.21;65.67;99869.03;5018244;28;20375;-75
2022/04/03 08:46:46;;;;;;;13.77;9.10;;;;;;;4.98;66.25;99871.63;5020055;28;20229;-76
2022/04/03 08:49:12;;;;;;;12.27;10.77;;;;;;;4.77;66.43;99873.22;5019965;28;20873;-75
2022/04/03 08:51:40;;;;;;;12.10;8.03;;;;;;;4.55;67.18;99876.59;5019568;28;20226;-75
2022/04/03 08:54:06;;;;;;;12.20;8.82;;;;;;;4.44;67.48;99873.50;5018460;28;20280;-74
2022/04/03 08:56:32;;;;;;;10.70;7.20;;;;;;;4.35;67.84;99879.03;5020082;28;20650;-75
2022/04/03 08:59:00;;;;;;;16.13;11.73;;;;;;;4.26;68.22;99881.94;5020812;28;20217;-74
2022/04/03 09:01:26;;;;;;;12.57;10.25;;;;;;;4.21;68.65;99875.16;5021417;28;20274;-75
2022/04/03 09:03:51;;;;;;;13.87;11.20;;;;;;;4.24;69.32;99873.31;5019664;28;20215;-75
2022/04/03 09:06:21;;;;;;;14.37;9.33;;;;;;;4.26;69.81;99871.53;5017354;28;20214;-74
2022/04/03 09:08:47;;;;;;;10.82;9.15;;;;;;;4.19;70.34;99881.28;5018865;28;20225;-74
2022/04/03 09:11:13;;;;;;;12.63;9.15;;;;;;;4.09;70.10;99879.88;5019578;28;20534;-74
2022/04/03 09:13:40;;;;;;;16.10;11.73;;;;;;;4.04;70.60;99866.19;5018585;28;20281;-74
2022/04/03 09:16:07;;;;;;;14.10;10.35;;;;;;;4.04;70.76;99872.22;5019583;28;20205;-75
2022/04/03 09:18:42;;;;;;;15.38;11.52;;;;;;;3.98;71.21;99883.69;5019971;28;20238;-75
2022/04/03 09:21:35;;;;;;;17.48;11.55;;;;;;;3.97;71.34;99881.16;5019466;28;20583;-75
2022/04/03 09:24:12;;;;;;;14.57;9.38;;;;;;;3.98;71.65;99875.03;5015616;28;20234;-75
2022/04/03 09:26:40;;;;;;;16.52;9.57;;;;;;;4.02;71.51;99879.22;5018838;28;20290;-75
2022/04/03 09:29:16;;;;;;;11.80;8.48;;;;;;;4.06;71.13;99875.63;5018900;28;20225;-75
2022/04/03 09:31:44;;;;;;;13.93;9.90;;;;;;;4.11;71.08;99878.09;5017467;28;20522;-74
2022/04/03 09:34:20;;;;;;;14.63;10.65;;;;;;;4.09;70.79;99872.09;5018347;28;20550;-75
2022/04/03 09:36:59;;;;;;;15.02;9.57;;;;;;;4.14;70.74;99878.00;5018062;28;20309;-75
2022/04/03 09:39:30;;;;;;;12.80;9.02;;;;;;;4.21;70.64;99882.94;5018868;28;20206;-75
2022/04/03 09:42:08;;;;;;;11.02;7.78;;;;;;;4.20;69.57;99878.63;5019007;28;20289;-74
2022/04/03 09:44:39;;;;;;;10.25;7.45;;;;;;;4.14;68.81;99884.03;5018056;28;20722;-74
2022/04/03 09:47:30;;;;;;;8.20;6.75;;;;;;;4.18;67.79;99879.56;5019028;28;20210;-75
2022/04/03 09:50:01;;;;;;;7.63;6.13;;;;;;;4.16;65.90;99882.25;5018982;28;20388;-74
2022/04/03 09:52:41;;;;;;;9.68;6.50;;;;;;;4.19;65.72;99876.94;5033044;28;20740;-74
2022/04/03 09:55:28;;;;;;;9.52;7.47;;;;;;;4.26;65.68;99882.78;5017993;28;20596;-74
2022/04/03 09:58:05;;;;;;;9.55;6.53;;;;;;;4.31;66.41;99880.03;5018255;28;20225;-75
2022/04/03 10:00:41;;;;;;;9.35;5.43;;;;;;;4.32;66.15;99881.72;5017851;28;20541;-75
2022/04/03 10:03:10;;;;;;;11.48;6.65;;;;;;;4.39;66.48;99884.06;5017688;28;20267;-74
2022/04/03 10:05:36;;;;;;;8.98;6.50;;;;;;;4.46;65.50;99878.69;5017082;28;20244;-74
2022/04/03 10:08:04;;;;;;;7.55;4.70;;;;;;;4.41;63.99;99887.47;5017768;28;20206;-74
2022/04/03 10:10:31;;;;;;;6.68;6.03;;;;;;;4.35;64.60;99885.09;5016720;28;20246;-75
2022/04/03 10:12:58;;;;;;;6.50;5.05;;;;;;;4.39;64.42;99888.41;5017098;28;20257;-74
2022/04/03 10:15:24;;;;;;;9.32;6.28;;;;;;;4.41;63.53;99886.63;5019567;28;20230;-74
2022/04/03 10:17:50;;;;;;;7.63;5.55;;;;;;;4.42;63.28;99886.56;5020135;28;20330;-74
2022/04/03 10:20:15;;;;;;;8.83;6.40;;;;;;;4.48;63.25;99882.88;5019220;28;20503;-75
2022/04/03 10:22:44;;;;;;;7.50;5.90;;;;;;;4.49;62.80;99884.59;5018950;28;20207;-74
2022/04/03 10:25:14;;;;;;;5.57;4.85;;;;;;;4.40;61.62;99884.91;5024728;28;20237;-74
2022/04/03 10:27:42;;;;;;;7.13;6.40;;;;;;;4.44;62.48;99891.72;5025630;28;20706;-73
2022/04/03 10:30:10;;;;;;;7.55;5.80;;;;;;;4.56;61.79;99890.44;5026100;28;20237;-75
2022/04/03 10:32:36;;;;;;;7.80;5.70;;;;;;;4.65;61.57;99880.56;5023508;28;20205;-74
2022/04/03 10:35:09;;;;;;;4.60;4.20;;;;;;;4.75;61.14;99880.25;5026731;28;20252;-72
2022/04/03 10:37:40;;;;;;;6.18;4.22;;;;;;;4.71;58.99;99876.91;5024649;28;20682;-73
2022/04/03 10:40:17;;;;;;;5.90;5.32;;;;;;;4.66;59.07;99890.06;5024406;28;20206;-74
2022/04/03 10:42:58;;;;;;;7.20;5.18;;;;;;;4.68;59.66;99879.63;5024716;28;20206;-74
2022/04/03 10:45:27;;;;;;;5.55;4.55;;;;;;;4.78;59.09;99878.41;5022601;28;20579;-73
2022/04/03 10:48:21;;;;;;;7.35;5.00;;;;;;;4.79;57.86;99881.84;5025364;28;20241;-73
2022/04/03 10:51:04;;;;;;;5.40;3.65;;;;;;;4.74;57.23;99882.00;5024405;28;20237;-73
2022/04/03 10:53:32;;;;;;;4.30;4.00;;;;;;;4.69;56.65;99883.06;5023972;28;20224;-73
2022/04/03 10:56:09;;;;;;;6.80;4.43;;;;;;;4.68;56.95;99882.22;5022932;28;20288;-72
2022/04/03 10:58:44;;;;;;;8.02;5.10;;;;;;;4.76;57.12;99882.78;5021698;28;20217;-72
2022/04/03 11:01:20;;;;;;;8.65;7.05;;;;;;;4.87;56.91;99883.25;5020779;28;20535;-73
2022/04/03 11:03:56;;;;;;;8.68;7.50;;;;;;;4.94;57.19;99878.69;5021070;28;20595;-72
2022/04/03 11:06:24;;;;;;;6.72;5.40;;;;;;;5.04;56.87;99876.59;5021366;28;20260;-72
2022/04/03 11:09:20;;;;;;;6.85;4.53;;;;;;;5.17;56.06;99877.00;5021935;28;20290;-72
2022/04/03 11:11:53;;;;;;;7.47;4.43;;;;;;;5.16;55.51;99883.97;5021172;28;20316;-73
2022/04/03 11:14:57;;;;;;;6.57;5.38;;;;;;;5.21;55.98;99882.03;5021542;28;20253;-73
2022/04/03 11:17:45;;;;;;;9.27;5.82;;;;;;;5.17;55.76;99871.78;5024727;28;20216;-73
2022/04/03 11:20:28;;;;;;;5.82;5.22;;;;;;;5.00;56.23;99878.47;5022941;28;20213;-74
2022/04/03 11:22:54;;;;;;;5.40;4.70;;;;;;;4.85;56.89;99879.84;5022114;28;20237;-73
2022/04/03 11:25:21;;;;;;;5.80;4.85;;;;;;;4.82;57.53;99881.72;5020751;28;20316;-74
2022/04/03 11:27:47;;;;;;;5.80;5.18;;;;;;;4.79;58.11;99887.03;5022641;28;20206;-74
2022/04/03 11:30:13;;;;;;;8.75;6.30;;;;;;;4.71;58.70;99883.88;5020386;28;20808;-74
2022/04/03 11:32:39;;;;;;;7.27;5.83;;;;;;;4.70;58.53;99885.63;5021062;28;21010;-73